Time;durP1;ratioP1;P1;durP2;ratioP2;P2;SDS_P1;SDS_P2;PMS_P1;PMS_P2;Temp;Humidity;BMP_temperature;BMP_pressure;BME280_temperature;BME280_humidity;BME280_pressure;Samples;Min_cycle;Max_cycle;Signal;HPM_P1;HPM_P2
2020/12/22 00:01:09;;;;;;;14.82;12.10;;;;;;;;;;5050878;28;20410;-78
2020/12/22 00:03:35;;;;;;;14.85;13.05;;;;;;;;;;5056869;28;20352;-78
2020/12/22 00:06:01;;;;;;;15.02;12.43;;;;;;;;;;5055734;28;20367;-79
2020/12/22 00:08:27;;;;;;;13.70;11.75;;;;;;;;;;5055983;28;20941;-78
2020/12/22 00:10:53;;;;;;;15.52;12.30;;;;;;;;;;5051637;28;20379;-80
2020/12/22 00:13:19;;;;;;;15.30;12.30;;;;;;;;;;5051909;28;20371;-77
2020/12/22 00:15:45;;;;;;;16.67;12.80;;;;;;;;;;5052062;28;20352;-78
2020/12/22 00:18:12;;;;;;;15.33;12.80;;;;;;;;;;5033977;28;20574;-78
2020/12/22 00:20:38;;;;;;;14.27;12.77;;;;;;;;;;5033563;28;20396;-79
2020/12/22 00:23:04;;;;;;;15.77;12.02;;;;;;;;;;5033982;28;20807;-78
2020/12/22 00:25:31;;;;;;;14.60;12.23;;;;;;;;;;5033947;28;20375;-78
2020/12/22 00:27:57;;;;;;;13.85;12.00;;;;;;;;;;5036290;28;20387;-77
2020/12/22 00:30:23;;;;;;;15.10;11.80;;;;;;;;;;5060904;28;20848;-80
2020/12/22 00:32:49;;;;;;;15.00;12.63;;;;;;;;;;5060167;28;20387;-78
2020/12/22 00:35:15;;;;;;;13.88;12.15;;;;;;;;;;5041833;28;20757;-78
2020/12/22 00:37:41;;;;;;;14.23;12.13;;;;;;;;;;5043540;28;20374;-79
2020/12/22 00:40:07;;;;;;;14.27;12.27;;;;;;;;;;5061200;28;20391;-77
2020/12/22 00:42:33;;;;;;;15.50;12.90;;;;;;;;;;5067826;28;20788;-78
2020/12/22 00:45:00;;;;;;;15.00;12.65;;;;;;;;;;5052891;28;20366;-78
2020/12/22 00:47:26;;;;;;;15.57;13.20;;;;;;;;;;5071282;28;20821;-78
2020/12/22 00:49:52;;;;;;;14.65;12.55;;;;;;;;;;5052113;28;20882;-78
2020/12/22 00:52:18;;;;;;;15.25;12.50;;;;;;;;;;5053005;28;20767;-78
2020/12/22 00:54:44;;;;;;;15.67;12.50;;;;;;;;;;5053387;28;20395;-78
2020/12/22 00:57:10;;;;;;;15.18;12.70;;;;;;;;;;5053128;28;20370;-78
2020/12/22 00:59:36;;;;;;;14.55;12.13;;;;;;;;;;5070629;28;20389;-77
2020/12/22 01:02:06;;;;;;;13.52;12.13;;;;;;;;;;5052850;28;20366;-78
2020/12/22 01:04:32;;;;;;;17.67;13.27;;;;;;;;;;5070952;28;20442;-79
2020/12/22 01:06:58;;;;;;;16.15;13.43;;;;;;;;;;5053250;28;20374;-78
2020/12/22 01:09:24;;;;;;;15.52;13.23;;;;;;;;;;5052845;28;20373;-78
2020/12/22 01:11:51;;;;;;;15.45;13.20;;;;;;;;;;5052931;28;20453;-78
2020/12/22 01:14:17;;;;;;;14.73;12.52;;;;;;;;;;5052988;28;20455;-78
2020/12/22 01:16:43;;;;;;;16.25;13.18;;;;;;;;;;5053012;28;20457;-78
2020/12/22 01:19:09;;;;;;;15.37;12.93;;;;;;;;;;5052839;28;20744;-77
2020/12/22 01:21:35;;;;;;;15.05;13.00;;;;;;;;;;5070764;28;20450;-78
2020/12/22 01:24:01;;;;;;;15.63;13.15;;;;;;;;;;5052831;28;20362;-79
2020/12/22 01:26:27;;;;;;;15.45;13.07;;;;;;;;;;5070667;28;20362;-79
2020/12/22 01:28:53;;;;;;;16.30;13.90;;;;;;;;;;5052693;28;20491;-78
2020/12/22 01:31:40;;;;;;;15.48;12.75;;;;;;;;;;5070310;28;20443;-78
2020/12/22 01:34:06;;;;;;;16.35;13.30;;;;;;;;;;5052733;28;20373;-77
2020/12/22 01:36:32;;;;;;;16.70;13.80;;;;;;;;;;5052702;28;20370;-78
2020/12/22 01:38:58;;;;;;;15.32;13.07;;;;;;;;;;5070920;28;20382;-78
2020/12/22 01:41:24;;;;;;;16.13;14.05;;;;;;;;;;5070856;28;20378;-78
2020/12/22 01:44:10;;;;;;;16.75;13.98;;;;;;;;;;5052526;28;20431;-80
2020/12/22 01:46:43;;;;;;;15.25;13.23;;;;;;;;;;5071014;28;20376;-78
2020/12/22 01:49:25;;;;;;;16.48;13.70;;;;;;;;;;5052406;28;20381;-77
2020/12/22 01:51:52;;;;;;;16.63;13.98;;;;;;;;;;5070442;28;20441;-78
2020/12/22 01:54:18;;;;;;;16.27;14.27;;;;;;;;;;5072112;28;20827;-79
2020/12/22 01:56:45;;;;;;;17.20;14.52;;;;;;;;;;5056548;28;20362;-77
2020/12/22 01:59:11;;;;;;;16.60;14.38;;;;;;;;;;5056166;28;20386;-79
2020/12/22 02:01:38;;;;;;;16.98;14.60;;;;;;;;;;5056478;28;20935;-77
2020/12/22 02:04:05;;;;;;;18.58;14.70;;;;;;;;;;5056537;28;20394;-78
2020/12/22 02:06:32;;;;;;;16.25;14.25;;;;;;;;;;5056358;28;20374;-78
2020/12/22 02:08:58;;;;;;;17.98;15.45;;;;;;;;;;5074019;28;20745;-80
2020/12/22 02:11:28;;;;;;;18.83;16.05;;;;;;;;;;5074210;28;20361;-78
2020/12/22 02:13:55;;;;;;;17.02;15.18;;;;;;;;;;5056389;28;20370;-78
2020/12/22 02:16:21;;;;;;;17.93;15.10;;;;;;;;;;5056255;28;20391;-78
2020/12/22 02:18:48;;;;;;;19.08;16.65;;;;;;;;;;5056290;28;20404;-76
2020/12/22 02:21:14;;;;;;;21.00;17.25;;;;;;;;;;5073781;28;20394;-78
2020/12/22 02:23:40;;;;;;;20.60;17.00;;;;;;;;;;5055888;28;20366;-78
2020/12/22 02:26:06;;;;;;;21.83;17.77;;;;;;;;;;5056099;28;20469;-77
2020/12/22 02:28:33;;;;;;;21.60;17.90;;;;;;;;;;5074189;28;20496;-77
2020/12/22 02:31:00;;;;;;;20.48;18.10;;;;;;;;;;5055849;28;20362;-77
2020/12/22 02:33:26;;;;;;;23.02;19.08;;;;;;;;;;5073674;28;20443;-78
2020/12/22 02:35:52;;;;;;;23.33;19.02;;;;;;;;;;5055830;28;20415;-79
2020/12/22 02:38:18;;;;;;;24.95;19.17;;;;;;;;;;5073592;28;20799;-79
2020/12/22 02:40:44;;;;;;;27.98;21.73;;;;;;;;;;5055727;28;20393;-78
2020/12/22 02:43:11;;;;;;;24.45;20.05;;;;;;;;;;5055574;28;20457;-77
2020/12/22 02:45:38;;;;;;;26.67;21.17;;;;;;;;;;5055697;28;20359;-78
2020/12/22 02:48:04;;;;;;;25.45;20.80;;;;;;;;;;5055596;28;20362;-77
2020/12/22 02:50:30;;;;;;;27.42;21.13;;;;;;;;;;5073380;28;20366;-77
2020/12/22 02:52:56;;;;;;;27.58;21.90;;;;;;;;;;5055401;28;20363;-77
2020/12/22 02:55:22;;;;;;;29.45;22.67;;;;;;;;;;5055537;28;20383;-77
2020/12/22 02:57:48;;;;;;;28.08;22.25;;;;;;;;;;5055702;28;20918;-77
2020/12/22 03:00:15;;;;;;;28.67;22.80;;;;;;;;;;5073132;28;21141;-78
2020/12/22 03:02:41;;;;;;;32.63;24.05;;;;;;;;;;5073650;28;20358;-78
2020/12/22 03:05:07;;;;;;;32.55;23.90;;;;;;;;;;5072717;28;20471;-77
2020/12/22 03:07:33;;;;;;;32.53;24.48;;;;;;;;;;5055049;28;20377;-78
2020/12/22 03:09:59;;;;;;;31.70;24.67;;;;;;;;;;5055181;28;20370;-77
2020/12/22 03:12:24;;;;;;;32.20;24.77;;;;;;;;;;5055299;28;20488;-77
2020/12/22 03:14:51;;;;;;;35.53;25.60;;;;;;;;;;5055296;28;20708;-78
2020/12/22 03:17:17;;;;;;;34.95;25.33;;;;;;;;;;5073206;28;20366;-77
2020/12/22 03:19:43;;;;;;;37.25;26.58;;;;;;;;;;5054621;28;20846;-78
2020/12/22 03:22:09;;;;;;;36.33;26.58;;;;;;;;;;5054803;28;20374;-77
2020/12/22 03:24:35;;;;;;;35.35;26.48;;;;;;;;;;5054974;28;20358;-77
2020/12/22 03:27:01;;;;;;;36.00;26.77;;;;;;;;;;5073119;28;20366;-78
2020/12/22 03:29:27;;;;;;;36.55;26.00;;;;;;;;;;5072538;28;20369;-77
2020/12/22 03:31:53;;;;;;;37.80;27.52;;;;;;;;;;5072691;28;20351;-77
2020/12/22 03:34:19;;;;;;;40.80;28.02;;;;;;;;;;5072656;28;20358;-78
2020/12/22 03:36:45;;;;;;;37.30;27.05;;;;;;;;;;5054463;28;20508;-77
2020/12/22 03:39:11;;;;;;;38.63;26.90;;;;;;;;;;5054500;28;20371;-77
2020/12/22 03:41:37;;;;;;;41.08;28.17;;;;;;;;;;5054638;28;20378;-78
2020/12/22 03:44:03;;;;;;;40.33;28.55;;;;;;;;;;5054354;28;20992;-77
2020/12/22 03:46:29;;;;;;;40.50;28.92;;;;;;;;;;5072369;28;20359;-78
2020/12/22 03:48:55;;;;;;;42.42;29.90;;;;;;;;;;5072164;28;20417;-78
2020/12/22 03:51:20;;;;;;;44.28;30.40;;;;;;;;;;5053953;28;20449;-76
2020/12/22 03:53:46;;;;;;;43.17;29.83;;;;;;;;;;5072180;28;20361;-78
2020/12/22 03:56:12;;;;;;;45.72;31.05;;;;;;;;;;5072214;28;20350;-77
2020/12/22 03:58:38;;;;;;;44.80;30.60;;;;;;;;;;5072360;28;20435;-77
2020/12/22 04:01:04;;;;;;;50.97;32.40;;;;;;;;;;5071820;28;20409;-79
2020/12/22 04:03:30;;;;;;;48.40;31.90;;;;;;;;;;5071914;28;20386;-77
2020/12/22 04:05:56;;;;;;;43.88;30.63;;;;;;;;;;5071879;28;20354;-77
2020/12/22 04:08:22;;;;;;;45.67;31.20;;;;;;;;;;5071756;28;20362;-78
2020/12/22 04:10:48;;;;;;;43.20;29.40;;;;;;;;;;5071618;28;20363;-78
2020/12/22 04:13:14;;;;;;;47.50;32.08;;;;;;;;;;5071986;28;20401;-77
2020/12/22 04:15:40;;;;;;;46.95;31.00;;;;;;;;;;5053627;28;20853;-78
2020/12/22 04:18:06;;;;;;;46.47;30.52;;;;;;;;;;5071066;28;20358;-77
2020/12/22 04:20:32;;;;;;;45.77;30.37;;;;;;;;;;5071269;28;20385;-80
2020/12/22 04:22:58;;;;;;;45.43;30.90;;;;;;;;;;5053843;28;20373;-77
2020/12/22 04:25:24;;;;;;;40.70;29.25;;;;;;;;;;5053758;28;20884;-77
2020/12/22 04:27:50;;;;;;;44.92;30.25;;;;;;;;;;5053759;28;20700;-78
2020/12/22 04:30:16;;;;;;;41.30;29.45;;;;;;;;;;5053492;28;20363;-77
2020/12/22 04:32:42;;;;;;;44.80;30.30;;;;;;;;;;5071401;28;20874;-77
2020/12/22 04:35:08;;;;;;;42.90;30.08;;;;;;;;;;5053615;28;20393;-77
2020/12/22 04:37:34;;;;;;;42.22;29.05;;;;;;;;;;5071550;28;20359;-77
2020/12/22 04:40:00;;;;;;;43.08;30.20;;;;;;;;;;5071095;28;20431;-77
2020/12/22 04:42:28;;;;;;;46.35;30.65;;;;;;;;;;5071287;28;20759;-78
2020/12/22 04:44:54;;;;;;;41.55;28.27;;;;;;;;;;5071240;28;20362;-77
2020/12/22 04:47:21;;;;;;;41.90;30.30;;;;;;;;;;5071055;28;20412;-78
2020/12/22 04:49:51;;;;;;;44.15;29.88;;;;;;;;;;5053275;28;20374;-78
2020/12/22 04:52:22;;;;;;;41.13;29.80;;;;;;;;;;5053579;28;20419;-78
2020/12/22 04:54:48;;;;;;;39.45;29.33;;;;;;;;;;5071281;28;20416;-78
2020/12/22 04:57:15;;;;;;;43.67;29.40;;;;;;;;;;5053280;28;20930;-77
2020/12/22 04:59:44;;;;;;;41.05;28.73;;;;;;;;;;5052973;28;20960;-78
2020/12/22 05:02:10;;;;;;;38.63;28.88;;;;;;;;;;5071097;28;20437;-78
2020/12/22 05:04:37;;;;;;;40.03;28.67;;;;;;;;;;5053244;28;20428;-77
2020/12/22 05:07:07;;;;;;;41.83;30.52;;;;;;;;;;5053111;28;20362;-78
2020/12/22 05:09:33;;;;;;;40.90;29.50;;;;;;;;;;5070774;28;20360;-77
2020/12/22 05:11:59;;;;;;;45.03;29.53;;;;;;;;;;5071149;28;20366;-78
2020/12/22 05:14:28;;;;;;;43.53;30.80;;;;;;;;;;5052999;28;20362;-78
2020/12/22 05:16:58;;;;;;;46.87;30.50;;;;;;;;;;5071368;28;20440;-79
2020/12/22 05:19:25;;;;;;;42.97;29.27;;;;;;;;;;5052719;28;20362;-77
2020/12/22 05:21:55;;;;;;;41.63;28.25;;;;;;;;;;5053146;28;20374;-77
2020/12/22 05:24:22;;;;;;;43.35;29.05;;;;;;;;;;5070654;28;20361;-78
2020/12/22 05:26:48;;;;;;;39.97;28.33;;;;;;;;;;5070718;28;20457;-78
2020/12/22 05:29:15;;;;;;;42.72;28.33;;;;;;;;;;5052182;28;20402;-78
2020/12/22 05:31:52;;;;;;;40.38;27.40;;;;;;;;;;5071271;28;20679;-78
2020/12/22 05:34:19;;;;;;;43.67;28.98;;;;;;;;;;5052977;28;20386;-77
2020/12/22 05:36:46;;;;;;;41.40;27.58;;;;;;;;;;5052662;28;20366;-78
2020/12/22 05:39:13;;;;;;;43.58;28.98;;;;;;;;;;5070174;28;20362;-78
2020/12/22 05:41:39;;;;;;;47.55;28.73;;;;;;;;;;5070397;28;20398;-79
2020/12/22 05:44:06;;;;;;;44.17;28.48;;;;;;;;;;5052402;28;20363;-78
2020/12/22 05:46:34;;;;;;;42.55;27.80;;;;;;;;;;5052645;28;20453;-77
2020/12/22 05:49:00;;;;;;;37.40;25.95;;;;;;;;;;5052509;28;20389;-77
2020/12/22 05:51:27;;;;;;;39.80;26.13;;;;;;;;;;5052620;28;20378;-77
2020/12/22 05:53:54;;;;;;;38.80;26.20;;;;;;;;;;5070418;28;20836;-77
2020/12/22 05:56:22;;;;;;;39.97;25.17;;;;;;;;;;5052520;28;20924;-77
2020/12/22 05:58:49;;;;;;;35.90;25.10;;;;;;;;;;5070375;28;20386;-79
2020/12/22 06:01:27;;;;;;;35.30;24.58;;;;;;;;;;5070163;28;20807;-80
2020/12/22 06:03:53;;;;;;;37.40;24.80;;;;;;;;;;5070538;28;20351;-78
2020/12/22 06:06:19;;;;;;;36.97;24.80;;;;;;;;;;5069965;28;20358;-77
2020/12/22 06:08:49;;;;;;;39.22;23.95;;;;;;;;;;5052110;28;20378;-77
2020/12/22 06:11:15;;;;;;;35.97;24.08;;;;;;;;;;5052285;28;20386;-79
2020/12/22 06:13:41;;;;;;;36.20;24.20;;;;;;;;;;5070306;28;20445;-78
2020/12/22 06:16:18;;;;;;;34.08;22.85;;;;;;;;;;5070298;28;20446;-78
2020/12/22 06:18:44;;;;;;;33.40;22.85;;;;;;;;;;5052499;28;20744;-77
2020/12/22 06:21:11;;;;;;;32.85;22.77;;;;;;;;;;5051962;28;20397;-77
2020/12/22 06:23:37;;;;;;;32.15;22.52;;;;;;;;;;5070183;28;20389;-78
2020/12/22 06:26:04;;;;;;;35.22;23.20;;;;;;;;;;5052323;28;20374;-78
2020/12/22 06:28:30;;;;;;;30.48;21.25;;;;;;;;;;5052513;28;20366;-79
2020/12/22 06:30:57;;;;;;;33.28;22.25;;;;;;;;;;5051929;28;20427;-77
2020/12/22 06:33:35;;;;;;;30.73;22.10;;;;;;;;;;5052177;28;21179;-79
2020/12/22 06:36:04;;;;;;;33.90;22.20;;;;;;;;;;5069937;28;20358;-79
2020/12/22 06:38:43;;;;;;;36.33;23.13;;;;;;;;;;5068497;28;20358;-78
2020/12/22 06:41:09;;;;;;;33.95;21.45;;;;;;;;;;5071214;28;20496;-78
2020/12/22 06:43:45;;;;;;;32.17;21.23;;;;;;;;;;5073721;28;20437;-78
2020/12/22 06:46:31;;;;;;;28.80;19.27;;;;;;;;;;5073127;28;20362;-78
2020/12/22 06:48:57;;;;;;;29.35;19.90;;;;;;;;;;5055672;28;20872;-83
2020/12/22 06:51:31;;;;;;;23.48;17.88;;;;;;;;;;5055581;28;20437;-79
2020/12/22 06:53:58;;;;;;;25.80;17.38;;;;;;;;;;5055651;28;20413;-78
2020/12/22 06:56:40;;;;;;;26.33;18.02;;;;;;;;;;5055593;28;20406;-78
2020/12/22 06:59:06;;;;;;;23.30;16.75;;;;;;;;;;5055525;28;20374;-77
2020/12/22 07:01:33;;;;;;;21.98;15.48;;;;;;;;;;5073276;28;20433;-78
2020/12/22 07:04:11;;;;;;;21.83;15.55;;;;;;;;;;5068544;28;20428;-78
2020/12/22 07:06:43;;;;;;;20.38;15.10;;;;;;;;;;5040718;28;20374;-77
2020/12/22 07:09:23;;;;;;;20.83;14.13;;;;;;;;;;5037583;28;20379;-79
2020/12/22 07:11:50;;;;;;;19.75;13.90;;;;;;;;;;5055134;28;20520;-79
2020/12/22 07:14:24;;;;;;;17.87;12.57;;;;;;;;;;5064655;28;20376;-78
2020/12/22 07:16:50;;;;;;;16.13;11.60;;;;;;;;;;5061640;28;20406;-79
2020/12/22 07:19:17;;;;;;;14.73;11.30;;;;;;;;;;5054811;28;20367;-77
2020/12/22 07:21:44;;;;;;;13.90;11.63;;;;;;;;;;5055174;28;20370;-77
2020/12/22 07:24:10;;;;;;;15.10;10.27;;;;;;;;;;5073442;28;20377;-77
2020/12/22 07:26:38;;;;;;;12.63;10.20;;;;;;;;;;5055233;28;20370;-77
2020/12/22 07:29:06;;;;;;;14.53;10.20;;;;;;;;;;5054743;28;20876;-77
2020/12/22 07:31:33;;;;;;;13.40;9.68;;;;;;;;;;5073045;28;20358;-77
2020/12/22 07:34:03;;;;;;;10.95;9.10;;;;;;;;;;5055007;28;20507;-77
2020/12/22 07:36:29;;;;;;;11.15;8.82;;;;;;;;;;5054696;28;20358;-77
2020/12/22 07:39:09;;;;;;;10.30;8.30;;;;;;;;;;5054719;28;20855;-77
2020/12/22 07:41:35;;;;;;;9.55;7.78;;;;;;;;;;5054615;28;20390;-78
2020/12/22 07:44:12;;;;;;;9.38;7.80;;;;;;;;;;5054533;28;20738;-77
2020/12/22 07:46:39;;;;;;;10.67;7.93;;;;;;;;;;5054431;28;20452;-77
2020/12/22 07:49:06;;;;;;;8.23;6.45;;;;;;;;;;5072112;28;20354;-77
2020/12/22 07:51:32;;;;;;;7.63;6.05;;;;;;;;;;5072306;28;20374;-77
2020/12/22 07:54:05;;;;;;;7.50;5.85;;;;;;;;;;5072438;28;20357;-77
2020/12/22 07:56:32;;;;;;;6.68;5.30;;;;;;;;;;5054501;28;20406;-77
2020/12/22 07:59:01;;;;;;;6.72;4.78;;;;;;;;;;5072023;28;20803;-78
2020/12/22 08:01:29;;;;;;;4.50;3.83;;;;;;;;;;5071926;28;20859;-76
2020/12/22 08:03:55;;;;;;;3.90;3.60;;;;;;;;;;5071936;28;20363;-77
2020/12/22 08:06:21;;;;;;;3.83;3.42;;;;;;;;;;5054137;28;20710;-77
2020/12/22 08:08:58;;;;;;;4.45;3.47;;;;;;;;;;5054259;28;20366;-77
2020/12/22 08:11:24;;;;;;;3.97;3.53;;;;;;;;;;5072139;28;20369;-78
2020/12/22 08:13:50;;;;;;;3.65;3.15;;;;;;;;;;5053995;28;20380;-77
2020/12/22 08:16:17;;;;;;;3.50;3.20;;;;;;;;;;5071905;28;21027;-77
2020/12/22 08:18:43;;;;;;;4.30;3.10;;;;;;;;;;5071849;28;20358;-77
2020/12/22 08:21:10;;;;;;;3.63;3.33;;;;;;;;;;5071586;28;20449;-77
2020/12/22 08:23:37;;;;;;;3.35;3.05;;;;;;;;;;5071741;28;20366;-77
2020/12/22 08:26:04;;;;;;;3.60;3.10;;;;;;;;;;5053867;28;20423;-78
2020/12/22 08:28:30;;;;;;;5.03;3.00;;;;;;;;;;5071693;28;20362;-77
2020/12/22 08:31:06;;;;;;;2.80;2.50;;;;;;;;;;5053597;28;20402;-77
2020/12/22 08:33:34;;;;;;;2.87;2.57;;;;;;;;;;5054106;28;20370;-77
2020/12/22 08:36:00;;;;;;;3.17;2.00;;;;;;;;;;5071451;28;20779;-76
2020/12/22 08:38:27;;;;;;;3.30;1.70;;;;;;;;;;5053593;28;20883;-76
2020/12/22 08:40:54;;;;;;;1.92;1.55;;;;;;;;;;5053139;28;20791;-77
2020/12/22 08:43:22;;;;;;;1.88;1.70;;;;;;;;;;5053739;28;20382;-75
2020/12/22 08:45:48;;;;;;;4.93;4.03;;;;;;;;;;5071238;28;20448;-76
2020/12/22 08:48:14;;;;;;;3.53;2.58;;;;;;;;;;5053341;28;20362;-75
2020/12/22 08:50:50;;;;;;;2.50;1.70;;;;;;;;;;5053403;28;20733;-77
2020/12/22 08:53:17;;;;;;;1.80;1.10;;;;;;;;;;5071169;28;20837;-76
2020/12/22 08:55:43;;;;;;;1.43;1.33;;;;;;;;;;5053278;28;20378;-77
2020/12/22 08:58:09;;;;;;;2.17;1.20;;;;;;;;;;5071514;28;20384;-75
2020/12/22 09:00:35;;;;;;;1.05;1.00;;;;;;;;;;5070767;28;20385;-76
2020/12/22 09:03:01;;;;;;;2.20;0.85;;;;;;;;;;5052683;28;20381;-76
2020/12/22 09:05:30;;;;;;;1.50;1.00;;;;;;;;;;5053149;28;20478;-75
2020/12/22 09:07:57;;;;;;;1.02;1.00;;;;;;;;;;5071351;28;20524;-77
2020/12/22 09:10:23;;;;;;;2.50;1.02;;;;;;;;;;5052957;28;20405;-78
2020/12/22 09:12:49;;;;;;;2.10;1.00;;;;;;;;;;5053087;28;20690;-78
2020/12/22 09:15:15;;;;;;;1.90;1.00;;;;;;;;;;5070849;28;20364;-78
2020/12/22 09:17:41;;;;;;;1.02;0.90;;;;;;;;;;5048474;28;20737;-78
2020/12/22 09:20:07;;;;;;;1.50;1.17;;;;;;;;;;5052564;28;20435;-79
2020/12/22 09:22:35;;;;;;;2.13;0.98;;;;;;;;;;5070023;28;20374;-77
2020/12/22 09:25:02;;;;;;;1.70;1.17;;;;;;;;;;5070787;28;20364;-79
2020/12/22 09:27:31;;;;;;;1.80;1.10;;;;;;;;;;5040478;28;20387;-78
2020/12/22 09:29:57;;;;;;;2.83;1.13;;;;;;;;;;5050654;28;20379;-79
2020/12/22 09:32:23;;;;;;;1.13;1.00;;;;;;;;;;5062095;28;20390;-80
2020/12/22 09:34:49;;;;;;;1.10;1.00;;;;;;;;;;5052440;28;20465;-84
2020/12/22 09:37:15;;;;;;;1.50;1.10;;;;;;;;;;5071330;28;20453;-77
2020/12/22 09:39:42;;;;;;;1.88;1.20;;;;;;;;;;5043432;28;20407;-79
2020/12/22 09:42:08;;;;;;;1.10;1.05;;;;;;;;;;5067042;28;20362;-77
2020/12/22 09:44:37;;;;;;;1.70;0.90;;;;;;;;;;5050340;28;20380;-78
2020/12/22 09:47:04;;;;;;;2.13;1.10;;;;;;;;;;5050956;28;20434;-79
2020/12/22 09:49:30;;;;;;;2.55;1.20;;;;;;;;;;5050661;28;20363;-77
2020/12/22 09:51:56;;;;;;;1.45;1.20;;;;;;;;;;5050422;28;20850;-78
2020/12/22 09:54:22;;;;;;;1.83;1.10;;;;;;;;;;5050402;28;20876;-79
2020/12/22 09:56:50;;;;;;;1.80;1.20;;;;;;;;;;5036098;28;20362;-77
2020/12/22 09:59:16;;;;;;;1.45;1.20;;;;;;;;;;5070310;28;20370;-79
2020/12/22 10:01:42;;;;;;;2.78;1.25;;;;;;;;;;5069890;28;20879;-78
2020/12/22 10:04:08;;;;;;;2.08;1.25;;;;;;;;;;5070068;28;20394;-79
2020/12/22 10:06:34;;;;;;;1.80;1.50;;;;;;;;;;5052461;28;20385;-78
2020/12/22 10:09:01;;;;;;;1.67;1.40;;;;;;;;;;5043633;28;20858;-77
2020/12/22 10:11:27;;;;;;;2.88;1.42;;;;;;;;;;5039812;28;20374;-77
2020/12/22 10:13:53;;;;;;;1.52;1.30;;;;;;;;;;5041092;28;20377;-79
2020/12/22 10:16:21;;;;;;;2.60;1.23;;;;;;;;;;5063722;28;20368;-80
2020/12/22 10:18:47;;;;;;;1.80;1.42;;;;;;;;;;5059356;28;20378;-78
2020/12/22 10:21:14;;;;;;;1.40;1.30;;;;;;;;;;5040762;28;20417;-77
2020/12/22 10:23:41;;;;;;;2.88;1.20;;;;;;;;;;5044639;28;20411;-78
2020/12/22 10:26:09;;;;;;;2.50;1.38;;;;;;;;;;5044729;28;20370;-77
2020/12/22 10:28:36;;;;;;;1.98;1.30;;;;;;;;;;5045026;28;20368;-79
2020/12/22 10:31:02;;;;;;;2.27;1.37;;;;;;;;;;5062038;28;20395;-79
2020/12/22 10:33:29;;;;;;;1.30;1.20;;;;;;;;;;5045626;28;20856;-78
2020/12/22 10:35:55;;;;;;;1.50;1.10;;;;;;;;;;5038672;28;20386;-78
2020/12/22 10:38:22;;;;;;;3.78;1.17;;;;;;;;;;5070224;28;20382;-79
2020/12/22 10:40:49;;;;;;;2.08;1.20;;;;;;;;;;5058474;28;20455;-80
2020/12/22 10:43:15;;;;;;;1.40;1.25;;;;;;;;;;5045058;28;20382;-83
2020/12/22 10:45:41;;;;;;;1.50;1.40;;;;;;;;;;5043344;28;20398;-79
2020/12/22 10:48:08;;;;;;;2.63;1.23;;;;;;;;;;5047280;28;20378;-77
2020/12/22 10:50:35;;;;;;;1.73;1.10;;;;;;;;;;5071465;28;20377;-79
2020/12/22 10:53:02;;;;;;;1.25;1.15;;;;;;;;;;5047822;28;20429;-78
2020/12/22 10:55:28;;;;;;;1.80;1.23;;;;;;;;;;5048949;28;20446;-79
2020/12/22 10:57:54;;;;;;;1.80;1.30;;;;;;;;;;5066191;28;20792;-78
2020/12/22 11:00:20;;;;;;;1.85;1.33;;;;;;;;;;5072558;28;20428;-78
2020/12/22 11:02:48;;;;;;;2.22;1.50;;;;;;;;;;5038840;28;20385;-77
2020/12/22 11:05:14;;;;;;;2.25;1.50;;;;;;;;;;5053539;28;20370;-77
2020/12/22 11:07:50;;;;;;;2.45;1.45;;;;;;;;;;5055254;28;20484;-79
2020/12/22 11:10:16;;;;;;;2.40;1.50;;;;;;;;;;5065475;28;20414;-78
2020/12/22 11:12:42;;;;;;;3.10;1.77;;;;;;;;;;5052397;28;20850;-77
2020/12/22 11:15:09;;;;;;;2.20;1.40;;;;;;;;;;5052871;28;20866;-77
2020/12/22 11:17:35;;;;;;;1.90;1.50;;;;;;;;;;5053295;28;20399;-77
2020/12/22 11:20:01;;;;;;;2.50;1.40;;;;;;;;;;5038244;28;20888;-77
2020/12/22 11:22:28;;;;;;;2.22;1.73;;;;;;;;;;5071204;28;20378;-77
2020/12/22 11:24:54;;;;;;;2.28;1.52;;;;;;;;;;5053402;28;20401;-77
2020/12/22 11:27:20;;;;;;;1.63;1.50;;;;;;;;;;5051311;28;20363;-79
2020/12/22 11:29:47;;;;;;;2.08;1.60;;;;;;;;;;5050010;28;20482;-79
2020/12/22 11:32:14;;;;;;;2.15;1.45;;;;;;;;;;5070657;28;20385;-80
2020/12/22 11:34:40;;;;;;;2.33;1.60;;;;;;;;;;5057114;28;20364;-81
2020/12/22 11:37:06;;;;;;;2.80;1.90;;;;;;;;;;5052974;28;20417;-81
2020/12/22 11:39:32;;;;;;;3.15;1.50;;;;;;;;;;5072200;28;20396;-80
2020/12/22 11:42:06;;;;;;;2.00;1.40;;;;;;;;;;5062297;28;20374;-80
2020/12/22 11:44:33;;;;;;;1.92;1.52;;;;;;;;;;5071934;28;20370;-80
2020/12/22 11:46:59;;;;;;;3.03;1.58;;;;;;;;;;5036751;28;20379;-80
2020/12/22 11:49:28;;;;;;;2.53;1.60;;;;;;;;;;5034020;28;20425;-81
2020/12/22 11:52:00;;;;;;;2.70;1.40;;;;;;;;;;5037433;28;20437;-82
2020/12/22 11:54:27;;;;;;;2.10;1.40;;;;;;;;;;5041460;28;20395;-80
2020/12/22 11:56:54;;;;;;;1.75;1.40;;;;;;;;;;5064736;28;20368;-82
2020/12/22 11:59:20;;;;;;;1.60;1.50;;;;;;;;;;5065605;28;20413;-82
2020/12/22 12:01:47;;;;;;;3.00;1.50;;;;;;;;;;5057088;28;20950;-81
2020/12/22 12:04:13;;;;;;;2.58;1.40;;;;;;;;;;5063594;28;20425;-81
2020/12/22 12:06:46;;;;;;;3.38;1.42;;;;;;;;;;5059196;28;20363;-82
2020/12/22 12:09:12;;;;;;;1.73;1.48;;;;;;;;;;5057012;28;20423;-80
2020/12/22 12:11:40;;;;;;;3.95;1.50;;;;;;;;;;5058992;28;20877;-79
2020/12/22 12:14:07;;;;;;;2.55;1.50;;;;;;;;;;5063131;28;20369;-82
2020/12/22 12:16:33;;;;;;;2.25;1.45;;;;;;;;;;5039752;28;20930;-80
2020/12/22 12:19:01;;;;;;;2.38;1.30;;;;;;;;;;5056566;28;20411;-79
2020/12/22 12:21:28;;;;;;;2.63;1.30;;;;;;;;;;5062313;28;20473;-80
2020/12/22 12:23:56;;;;;;;2.33;1.70;;;;;;;;;;5059958;28;21186;-78
2020/12/22 12:26:23;;;;;;;1.30;1.20;;;;;;;;;;5039694;28;20454;-78
2020/12/22 12:28:50;;;;;;;2.25;1.58;;;;;;;;;;5061197;28;20378;-79
2020/12/22 12:31:18;;;;;;;4.50;1.50;;;;;;;;;;5058227;28;20393;-79
2020/12/22 12:33:44;;;;;;;2.67;1.40;;;;;;;;;;5058785;28;20375;-79
2020/12/22 12:36:13;;;;;;;2.20;1.35;;;;;;;;;;5041256;28;20760;-78
2020/12/22 12:38:40;;;;;;;2.30;1.40;;;;;;;;;;5061342;28;20398;-77
2020/12/22 12:41:06;;;;;;;1.35;1.20;;;;;;;;;;5039308;28;20407;-80
2020/12/22 12:43:32;;;;;;;2.80;1.27;;;;;;;;;;5060146;28;20359;-81
2020/12/22 12:45:58;;;;;;;2.60;1.38;;;;;;;;;;5062988;28;20688;-79
2020/12/22 12:48:24;;;;;;;1.80;1.33;;;;;;;;;;5062990;28;20358;-79
2020/12/22 12:50:50;;;;;;;3.40;1.40;;;;;;;;;;5035224;28;20368;-87
2020/12/22 12:53:16;;;;;;;2.25;1.20;;;;;;;;;;5037212;28;20385;-83
2020/12/22 12:55:42;;;;;;;2.13;1.42;;;;;;;;;;5053691;28;20412;-78
2020/12/22 12:58:10;;;;;;;2.75;1.30;;;;;;;;;;5054058;28;20377;-79
2020/12/22 13:00:37;;;;;;;2.63;1.10;;;;;;;;;;5037705;28;22059;-80
2020/12/22 13:03:03;;;;;;;4.30;1.20;;;;;;;;;;5055251;28;20817;-80
2020/12/22 13:05:29;;;;;;;3.10;1.40;;;;;;;;;;5054923;28;20370;-79
2020/12/22 13:07:55;;;;;;;2.58;1.23;;;;;;;;;;5072736;28;20439;-81
2020/12/22 13:10:22;;;;;;;1.67;1.20;;;;;;;;;;5054624;28;20468;-79
2020/12/22 13:12:48;;;;;;;2.30;1.20;;;;;;;;;;5065378;28;20377;-79
2020/12/22 13:15:14;;;;;;;2.63;1.40;;;;;;;;;;5060687;28;20376;-79
2020/12/22 13:17:40;;;;;;;3.77;1.40;;;;;;;;;;5044381;28;20370;-79
2020/12/22 13:20:06;;;;;;;2.53;1.40;;;;;;;;;;5035046;28;20913;-80
2020/12/22 13:22:32;;;;;;;1.80;1.70;;;;;;;;;;5061756;28;20362;-80
2020/12/22 13:24:58;;;;;;;3.03;1.58;;;;;;;;;;5063313;28;20765;-81
2020/12/22 13:27:24;;;;;;;3.25;1.70;;;;;;;;;;5042874;28;20995;-81
2020/12/22 13:29:50;;;;;;;2.72;1.80;;;;;;;;;;5046724;28;20372;-80
2020/12/22 13:32:16;;;;;;;2.65;1.38;;;;;;;;;;5053635;28;20359;-79
2020/12/22 13:34:42;;;;;;;1.50;1.30;;;;;;;;;;5034234;28;20380;-79
2020/12/22 13:37:08;;;;;;;1.58;1.30;;;;;;;;;;5034635;28;20374;-82
2020/12/22 13:39:34;;;;;;;1.98;1.30;;;;;;;;;;5041230;28;20381;-84
2020/12/22 13:42:00;;;;;;;3.22;1.42;;;;;;;;;;5045557;28;20366;-80
2020/12/22 13:44:26;;;;;;;2.10;1.50;;;;;;;;;;5059247;28;20366;-84
2020/12/22 13:46:52;;;;;;;2.58;1.35;;;;;;;;;;5058880;28;20386;-83
2020/12/22 13:49:19;;;;;;;2.08;1.40;;;;;;;;;;5055787;28;20374;-82
2020/12/22 13:51:46;;;;;;;2.03;1.38;;;;;;;;;;5063854;28;20369;-85
2020/12/22 13:54:12;;;;;;;2.70;1.33;;;;;;;;;;5065251;28;20455;-84
2020/12/22 13:56:38;;;;;;;2.75;1.40;;;;;;;;;;5051611;28;20374;-84
2020/12/22 13:59:04;;;;;;;2.05;1.45;;;;;;;;;;5052491;28;20377;-83
2020/12/22 14:01:31;;;;;;;2.40;1.60;;;;;;;;;;5060348;28;20832;-83
2020/12/22 14:03:57;;;;;;;3.97;1.50;;;;;;;;;;5055248;28;20426;-82
2020/12/22 14:06:26;;;;;;;4.33;1.70;;;;;;;;;;5041472;28;20496;-87
2020/12/22 14:08:52;;;;;;;2.13;1.47;;;;;;;;;;5063087;28;20917;-83
2020/12/22 14:11:18;;;;;;;2.50;1.48;;;;;;;;;;5071461;28;20366;-82
2020/12/22 14:13:45;;;;;;;2.35;1.40;;;;;;;;;;5071856;28;20354;-84
2020/12/22 14:16:15;;;;;;;3.03;1.60;;;;;;;;;;5049464;28;20373;-81
2020/12/22 14:18:41;;;;;;;3.38;1.50;;;;;;;;;;5070696;28;20358;-83
2020/12/22 14:21:13;;;;;;;4.07;1.65;;;;;;;;;;5061023;28;20449;-82
2020/12/22 14:23:39;;;;;;;3.30;1.70;;;;;;;;;;5042630;28;20455;-81
2020/12/22 14:26:06;;;;;;;4.80;1.67;;;;;;;;;;5057951;28;20494;-84
2020/12/22 14:28:38;;;;;;;5.93;2.60;;;;;;;;;;5066757;28;20906;-85